sensor_id;sensor_type;location;lat;lon;timestamp;P1;durP1;ratioP1;P2;durP2;ratioP2
54464;SDS011;40374;49.480;20.016;2023-03-16T00:00:19;23.25;;;8.60;;
54464;SDS011;40374;49.480;20.016;2023-03-16T00:03:08;23.38;;;8.07;;
54464;SDS011;40374;49.480;20.016;2023-03-16T00:05:36;29.17;;;9.13;;
54464;SDS011;40374;49.480;20.016;2023-03-16T00:08:04;32.63;;;9.20;;
54464;SDS011;40374;49.480;20.016;2023-03-16T00:10:31;25.63;;;8.68;;
54464;SDS011;40374;49.480;20.016;2023-03-16T00:12:59;27.02;;;8.13;;
54464;SDS011;40374;49.480;20.016;2023-03-16T00:15:28;30.17;;;8.55;;
54464;SDS011;40374;49.480;20.016;2023-03-16T00:17:56;29.45;;;8.48;;
54464;SDS011;40374;49.480;20.016;2023-03-16T00:20:23;35.58;;;9.30;;
54464;SDS011;40374;49.480;20.016;2023-03-16T00:22:52;28.15;;;8.30;;
54464;SDS011;40374;49.480;20.016;2023-03-16T00:25:19;37.47;;;9.73;;
54464;SDS011;40374;49.480;20.016;2023-03-16T00:27:47;32.42;;;10.80;;
54464;SDS011;40374;49.480;20.016;2023-03-16T00:30:14;22.77;;;9.85;;
54464;SDS011;40374;49.480;20.016;2023-03-16T00:32:46;32.17;;;10.10;;
54464;SDS011;40374;49.480;20.016;2023-03-16T00:35:16;30.25;;;10.13;;
54464;SDS011;40374;49.480;20.016;2023-03-16T00:37:45;31.85;;;10.63;;
54464;SDS011;40374;49.480;20.016;2023-03-16T00:40:12;32.65;;;9.98;;
54464;SDS011;40374;49.480;20.016;2023-03-16T00:42:41;34.13;;;9.77;;
54464;SDS011;40374;49.480;20.016;2023-03-16T00:45:09;40.17;;;10.85;;
54464;SDS011;40374;49.480;20.016;2023-03-16T00:47:37;28.15;;;9.45;;
54464;SDS011;40374;49.480;20.016;2023-03-16T00:50:04;35.20;;;10.70;;
54464;SDS011;40374;49.480;20.016;2023-03-16T00:52:32;38.95;;;9.60;;
54464;SDS011;40374;49.480;20.016;2023-03-16T00:55:01;33.65;;;10.52;;
54464;SDS011;40374;49.480;20.016;2023-03-16T00:57:31;41.63;;;11.82;;
54464;SDS011;40374;49.480;20.016;2023-03-16T00:59:58;33.63;;;11.73;;
54464;SDS011;40374;49.480;20.016;2023-03-16T01:02:26;22.33;;;9.48;;
54464;SDS011;40374;49.480;20.016;2023-03-16T01:04:53;37.92;;;10.77;;
54464;SDS011;40374;49.480;20.016;2023-03-16T01:07:21;36.28;;;10.30;;
54464;SDS011;40374;49.480;20.016;2023-03-16T01:09:49;17.95;;;7.85;;
54464;SDS011;40374;49.480;20.016;2023-03-16T01:12:17;27.70;;;9.98;;
54464;SDS011;40374;49.480;20.016;2023-03-16T01:14:45;33.22;;;8.50;;
54464;SDS011;40374;49.480;20.016;2023-03-16T01:17:15;36.85;;;9.30;;
54464;SDS011;40374;49.480;20.016;2023-03-16T01:19:43;30.48;;;9.77;;
54464;SDS011;40374;49.480;20.016;2023-03-16T01:22:12;29.58;;;11.02;;
54464;SDS011;40374;49.480;20.016;2023-03-16T01:24:40;23.60;;;7.07;;
54464;SDS011;40374;49.480;20.016;2023-03-16T01:27:11;36.75;;;9.45;;
54464;SDS011;40374;49.480;20.016;2023-03-16T01:29:41;32.83;;;12.15;;
54464;SDS011;40374;49.480;20.016;2023-03-16T01:32:10;31.98;;;10.98;;
54464;SDS011;40374;49.480;20.016;2023-03-16T01:34:38;27.35;;;10.38;;
54464;SDS011;40374;49.480;20.016;2023-03-16T01:37:06;33.83;;;10.38;;
54464;SDS011;40374;49.480;20.016;2023-03-16T01:39:54;30.58;;;10.82;;
54464;SDS011;40374;49.480;20.016;2023-03-16T01:42:22;26.02;;;7.93;;
54464;SDS011;40374;49.480;20.016;2023-03-16T01:44:57;27.40;;;9.13;;
54464;SDS011;40374;49.480;20.016;2023-03-16T01:47:37;29.58;;;8.20;;
54464;SDS011;40374;49.480;20.016;2023-03-16T01:50:11;26.27;;;8.30;;
54464;SDS011;40374;49.480;20.016;2023-03-16T01:52:40;27.23;;;8.98;;
54464;SDS011;40374;49.480;20.016;2023-03-16T01:55:08;26.17;;;8.77;;
54464;SDS011;40374;49.480;20.016;2023-03-16T01:57:40;32.70;;;9.50;;
54464;SDS011;40374;49.480;20.016;2023-03-16T02:00:18;22.65;;;7.80;;
54464;SDS011;40374;49.480;20.016;2023-03-16T02:03:10;25.20;;;7.55;;
54464;SDS011;40374;49.480;20.016;2023-03-16T02:06:02;25.27;;;7.13;;
54464;SDS011;40374;49.480;20.016;2023-03-16T02:08:36;34.08;;;8.98;;
54464;SDS011;40374;49.480;20.016;2023-03-16T02:11:06;33.58;;;8.23;;
54464;SDS011;40374;49.480;20.016;2023-03-16T02:13:46;25.70;;;8.10;;
54464;SDS011;40374;49.480;20.016;2023-03-16T02:16:13;25.20;;;8.52;;
54464;SDS011;40374;49.480;20.016;2023-03-16T02:18:50;24.73;;;8.95;;
54464;SDS011;40374;49.480;20.016;2023-03-16T02:23:51;18.55;;;6.45;;
54464;SDS011;40374;49.480;20.016;2023-03-16T02:26:28;14.43;;;4.90;;
54464;SDS011;40374;49.480;20.016;2023-03-16T02:31:37;22.30;;;5.57;;
54464;SDS011;40374;49.480;20.016;2023-03-16T02:34:05;15.77;;;6.10;;
54464;SDS011;40374;49.480;20.016;2023-03-16T02:36:33;18.90;;;5.00;;
54464;SDS011;40374;49.480;20.016;2023-03-16T02:39:04;13.00;;;6.35;;
54464;SDS011;40374;49.480;20.016;2023-03-16T02:41:40;19.95;;;5.57;;
54464;SDS011;40374;49.480;20.016;2023-03-16T02:44:12;29.67;;;5.40;;
54464;SDS011;40374;49.480;20.016;2023-03-16T02:46:41;15.20;;;5.70;;
54464;SDS011;40374;49.480;20.016;2023-03-16T02:51:51;17.50;;;5.85;;
54464;SDS011;40374;49.480;20.016;2023-03-16T02:54:19;18.63;;;6.97;;
54464;SDS011;40374;49.480;20.016;2023-03-16T02:56:46;13.65;;;5.57;;
54464;SDS011;40374;49.480;20.016;2023-03-16T02:59:14;15.25;;;6.22;;
54464;SDS011;40374;49.480;20.016;2023-03-16T03:01:41;18.17;;;6.60;;
54464;SDS011;40374;49.480;20.016;2023-03-16T03:04:09;18.23;;;6.22;;
54464;SDS011;40374;49.480;20.016;2023-03-16T03:06:36;17.05;;;7.00;;
54464;SDS011;40374;49.480;20.016;2023-03-16T03:09:04;19.45;;;7.80;;
54464;SDS011;40374;49.480;20.016;2023-03-16T03:11:32;11.65;;;5.63;;
54464;SDS011;40374;49.480;20.016;2023-03-16T03:13:59;22.20;;;6.13;;
54464;SDS011;40374;49.480;20.016;2023-03-16T03:16:28;20.95;;;6.05;;
54464;SDS011;40374;49.480;20.016;2023-03-16T03:18:57;13.57;;;6.00;;
54464;SDS011;40374;49.480;20.016;2023-03-16T03:21:27;18.75;;;6.18;;
54464;SDS011;40374;49.480;20.016;2023-03-16T03:23:55;20.33;;;5.88;;
54464;SDS011;40374;49.480;20.016;2023-03-16T03:26:22;14.63;;;5.85;;
54464;SDS011;40374;49.480;20.016;2023-03-16T03:28:51;22.13;;;6.10;;
54464;SDS011;40374;49.480;20.016;2023-03-16T03:31:19;16.63;;;5.45;;
54464;SDS011;40374;49.480;20.016;2023-03-16T03:33:50;16.73;;;6.05;;
54464;SDS011;40374;49.480;20.016;2023-03-16T03:36:20;14.75;;;6.18;;
54464;SDS011;40374;49.480;20.016;2023-03-16T03:38:48;19.00;;;6.50;;
54464;SDS011;40374;49.480;20.016;2023-03-16T03:41:17;19.92;;;6.85;;
54464;SDS011;40374;49.480;20.016;2023-03-16T03:43:46;19.98;;;7.25;;
54464;SDS011;40374;49.480;20.016;2023-03-16T03:46:16;18.80;;;5.90;;
54464;SDS011;40374;49.480;20.016;2023-03-16T03:48:43;23.42;;;7.10;;
54464;SDS011;40374;49.480;20.016;2023-03-16T03:51:11;14.27;;;6.03;;
54464;SDS011;40374;49.480;20.016;2023-03-16T03:54:07;22.27;;;8.10;;
54464;SDS011;40374;49.480;20.016;2023-03-16T03:57:07;18.48;;;6.53;;
54464;SDS011;40374;49.480;20.016;2023-03-16T03:59:35;13.68;;;6.18;;
54464;SDS011;40374;49.480;20.016;2023-03-16T04:02:37;18.15;;;7.32;;
54464;SDS011;40374;49.480;20.016;2023-03-16T04:05:13;22.25;;;6.22;;
54464;SDS011;40374;49.480;20.016;2023-03-16T04:07:40;15.05;;;6.28;;
54464;SDS011;40374;49.480;20.016;2023-03-16T04:10:10;27.00;;;7.45;;
54464;SDS011;40374;49.480;20.016;2023-03-16T04:12:40;29.10;;;7.18;;
54464;SDS011;40374;49.480;20.016;2023-03-16T04:15:10;16.73;;;6.68;;
54464;SDS011;40374;49.480;20.016;2023-03-16T04:17:48;21.15;;;6.60;;
54464;SDS011;40374;49.480;20.016;2023-03-16T04:20:17;23.30;;;7.20;;
54464;SDS011;40374;49.480;20.016;2023-03-16T04:22:46;19.05;;;7.15;;
54464;SDS011;40374;49.480;20.016;2023-03-16T04:25:15;18.23;;;6.97;;
54464;SDS011;40374;49.480;20.016;2023-03-16T04:27:44;22.58;;;9.68;;
54464;SDS011;40374;49.480;20.016;2023-03-16T04:30:14;20.48;;;7.90;;
54464;SDS011;40374;49.480;20.016;2023-03-16T04:32:46;19.63;;;7.70;;
54464;SDS011;40374;49.480;20.016;2023-03-16T04:35:18;21.50;;;8.95;;
54464;SDS011;40374;49.480;20.016;2023-03-16T04:37:49;25.40;;;8.77;;
54464;SDS011;40374;49.480;20.016;2023-03-16T04:40:20;29.35;;;9.30;;
54464;SDS011;40374;49.480;20.016;2023-03-16T04:42:54;43.88;;;11.48;;
54464;SDS011;40374;49.480;20.016;2023-03-16T04:45:22;27.35;;;9.40;;
54464;SDS011;40374;49.480;20.016;2023-03-16T04:47:52;26.48;;;11.32;;
54464;SDS011;40374;49.480;20.016;2023-03-16T04:50:20;29.30;;;9.80;;
54464;SDS011;40374;49.480;20.016;2023-03-16T04:52:51;34.65;;;9.93;;
54464;SDS011;40374;49.480;20.016;2023-03-16T04:55:20;34.55;;;10.73;;
54464;SDS011;40374;49.480;20.016;2023-03-16T04:57:49;36.40;;;11.90;;
54464;SDS011;40374;49.480;20.016;2023-03-16T05:00:20;28.90;;;9.38;;
54464;SDS011;40374;49.480;20.016;2023-03-16T05:02:59;26.20;;;11.10;;
54464;SDS011;40374;49.480;20.016;2023-03-16T05:05:26;31.23;;;10.68;;
54464;SDS011;40374;49.480;20.016;2023-03-16T05:07:54;33.83;;;10.68;;
54464;SDS011;40374;49.480;20.016;2023-03-16T05:10:22;38.05;;;12.27;;
54464;SDS011;40374;49.480;20.016;2023-03-16T05:12:50;32.25;;;12.43;;
54464;SDS011;40374;49.480;20.016;2023-03-16T05:15:18;28.02;;;12.57;;
54464;SDS011;40374;49.480;20.016;2023-03-16T05:17:55;40.35;;;13.30;;
54464;SDS011;40374;49.480;20.016;2023-03-16T05:20:24;35.00;;;12.98;;
54464;SDS011;40374;49.480;20.016;2023-03-16T05:22:56;37.75;;;14.60;;
54464;SDS011;40374;49.480;20.016;2023-03-16T05:25:27;341.40;;;104.43;;
54464;SDS011;40374;49.480;20.016;2023-03-16T05:27:56;421.90;;;143.23;;
54464;SDS011;40374;49.480;20.016;2023-03-16T05:30:31;168.57;;;57.20;;
54464;SDS011;40374;49.480;20.016;2023-03-16T05:33:02;56.65;;;21.77;;
54464;SDS011;40374;49.480;20.016;2023-03-16T05:35:30;96.85;;;37.22;;
54464;SDS011;40374;49.480;20.016;2023-03-16T05:38:03;61.65;;;25.38;;
54464;SDS011;40374;49.480;20.016;2023-03-16T05:40:33;137.70;;;64.30;;
54464;SDS011;40374;49.480;20.016;2023-03-16T05:43:10;68.22;;;28.10;;
54464;SDS011;40374;49.480;20.016;2023-03-16T05:45:43;52.53;;;21.20;;
54464;SDS011;40374;49.480;20.016;2023-03-16T05:48:13;92.38;;;31.58;;
54464;SDS011;40374;49.480;20.016;2023-03-16T05:50:45;35.40;;;14.45;;
54464;SDS011;40374;49.480;20.016;2023-03-16T05:53:16;33.05;;;13.88;;
54464;SDS011;40374;49.480;20.016;2023-03-16T05:55:44;61.75;;;19.17;;
54464;SDS011;40374;49.480;20.016;2023-03-16T05:58:18;52.63;;;19.17;;
54464;SDS011;40374;49.480;20.016;2023-03-16T06:00:45;43.72;;;17.80;;
54464;SDS011;40374;49.480;20.016;2023-03-16T06:03:27;60.53;;;20.77;;
54464;SDS011;40374;49.480;20.016;2023-03-16T06:05:57;39.10;;;15.55;;
54464;SDS011;40374;49.480;20.016;2023-03-16T06:08:29;40.17;;;16.55;;
54464;SDS011;40374;49.480;20.016;2023-03-16T06:11:05;48.00;;;16.08;;
54464;SDS011;40374;49.480;20.016;2023-03-16T06:13:33;49.13;;;17.20;;
54464;SDS011;40374;49.480;20.016;2023-03-16T06:16:01;43.92;;;16.92;;
54464;SDS011;40374;49.480;20.016;2023-03-16T06:18:28;54.70;;;18.98;;
54464;SDS011;40374;49.480;20.016;2023-03-16T06:20:56;57.40;;;21.17;;
54464;SDS011;40374;49.480;20.016;2023-03-16T06:23:23;56.38;;;18.05;;
54464;SDS011;40374;49.480;20.016;2023-03-16T06:25:51;39.88;;;16.10;;
54464;SDS011;40374;49.480;20.016;2023-03-16T06:28:23;58.97;;;22.08;;
54464;SDS011;40374;49.480;20.016;2023-03-16T06:30:52;56.28;;;18.42;;
54464;SDS011;40374;49.480;20.016;2023-03-16T06:33:21;56.70;;;20.58;;
54464;SDS011;40374;49.480;20.016;2023-03-16T06:35:50;42.00;;;15.95;;
54464;SDS011;40374;49.480;20.016;2023-03-16T06:38:27;39.58;;;16.95;;
54464;SDS011;40374;49.480;20.016;2023-03-16T06:40:59;48.25;;;19.80;;
54464;SDS011;40374;49.480;20.016;2023-03-16T06:43:28;43.13;;;16.45;;
54464;SDS011;40374;49.480;20.016;2023-03-16T06:54:42;49.35;;;14.65;;
54464;SDS011;40374;49.480;20.016;2023-03-16T06:57:10;38.47;;;14.18;;
54464;SDS011;40374;49.480;20.016;2023-03-16T06:59:38;48.25;;;17.13;;
54464;SDS011;40374;49.480;20.016;2023-03-16T07:02:08;35.95;;;15.90;;
54464;SDS011;40374;49.480;20.016;2023-03-16T07:04:58;48.72;;;17.20;;
54464;SDS011;40374;49.480;20.016;2023-03-16T07:07:27;45.22;;;16.60;;
54464;SDS011;40374;49.480;20.016;2023-03-16T07:09:55;35.70;;;12.98;;
54464;SDS011;40374;49.480;20.016;2023-03-16T07:12:24;52.97;;;21.58;;
54464;SDS011;40374;49.480;20.016;2023-03-16T07:14:52;46.75;;;18.42;;
54464;SDS011;40374;49.480;20.016;2023-03-16T07:17:23;41.13;;;17.65;;
54464;SDS011;40374;49.480;20.016;2023-03-16T07:19:51;37.63;;;13.43;;
54464;SDS011;40374;49.480;20.016;2023-03-16T07:22:19;37.90;;;14.07;;
54464;SDS011;40374;49.480;20.016;2023-03-16T07:24:48;34.90;;;11.80;;
54464;SDS011;40374;49.480;20.016;2023-03-16T07:27:26;40.47;;;16.15;;
54464;SDS011;40374;49.480;20.016;2023-03-16T07:29:56;44.53;;;15.98;;
54464;SDS011;40374;49.480;20.016;2023-03-16T07:32:24;33.97;;;12.45;;
54464;SDS011;40374;49.480;20.016;2023-03-16T07:34:52;42.58;;;15.27;;
54464;SDS011;40374;49.480;20.016;2023-03-16T07:37:21;32.15;;;12.38;;
54464;SDS011;40374;49.480;20.016;2023-03-16T07:39:55;28.83;;;11.23;;
54464;SDS011;40374;49.480;20.016;2023-03-16T07:42:23;35.55;;;13.02;;
54464;SDS011;40374;49.480;20.016;2023-03-16T07:45:02;32.03;;;12.57;;
54464;SDS011;40374;49.480;20.016;2023-03-16T07:47:31;36.22;;;13.55;;
54464;SDS011;40374;49.480;20.016;2023-03-16T07:50:07;33.42;;;11.85;;
54464;SDS011;40374;49.480;20.016;2023-03-16T07:52:44;35.47;;;12.82;;
54464;SDS011;40374;49.480;20.016;2023-03-16T07:55:14;29.88;;;12.98;;
54464;SDS011;40374;49.480;20.016;2023-03-16T07:57:46;28.63;;;10.85;;
54464;SDS011;40374;49.480;20.016;2023-03-16T08:00:18;30.80;;;9.85;;
54464;SDS011;40374;49.480;20.016;2023-03-16T08:02:50;26.42;;;11.20;;
54464;SDS011;40374;49.480;20.016;2023-03-16T08:05:20;33.40;;;14.25;;
54464;SDS011;40374;49.480;20.016;2023-03-16T08:07:52;33.40;;;12.90;;
54464;SDS011;40374;49.480;20.016;2023-03-16T08:10:23;56.95;;;17.08;;
54464;SDS011;40374;49.480;20.016;2023-03-16T08:12:59;38.05;;;12.27;;
54464;SDS011;40374;49.480;20.016;2023-03-16T08:15:32;26.23;;;7.45;;
54464;SDS011;40374;49.480;20.016;2023-03-16T08:18:07;27.75;;;7.18;;
54464;SDS011;40374;49.480;20.016;2023-03-16T08:20:36;18.92;;;6.75;;
54464;SDS011;40374;49.480;20.016;2023-03-16T08:23:04;29.13;;;10.38;;
54464;SDS011;40374;49.480;20.016;2023-03-16T08:25:42;26.30;;;9.07;;
54464;SDS011;40374;49.480;20.016;2023-03-16T08:28:14;21.83;;;6.68;;
54464;SDS011;40374;49.480;20.016;2023-03-16T08:30:44;20.27;;;6.15;;
54464;SDS011;40374;49.480;20.016;2023-03-16T08:33:23;23.13;;;5.95;;
54464;SDS011;40374;49.480;20.016;2023-03-16T08:35:52;22.05;;;7.72;;
54464;SDS011;40374;49.480;20.016;2023-03-16T08:38:20;21.35;;;6.45;;
54464;SDS011;40374;49.480;20.016;2023-03-16T08:40:51;14.98;;;4.00;;
54464;SDS011;40374;49.480;20.016;2023-03-16T08:43:21;10.88;;;3.75;;
54464;SDS011;40374;49.480;20.016;2023-03-16T08:45:51;11.32;;;3.65;;
54464;SDS011;40374;49.480;20.016;2023-03-16T08:48:24;11.73;;;3.65;;
54464;SDS011;40374;49.480;20.016;2023-03-16T08:50:53;11.07;;;4.03;;
54464;SDS011;40374;49.480;20.016;2023-03-16T08:53:23;11.77;;;2.92;;
54464;SDS011;40374;49.480;20.016;2023-03-16T08:55:51;11.15;;;2.90;;
54464;SDS011;40374;49.480;20.016;2023-03-16T08:58:22;10.27;;;2.75;;
54464;SDS011;40374;49.480;20.016;2023-03-16T09:00:50;12.98;;;4.25;;
54464;SDS011;40374;49.480;20.016;2023-03-16T09:03:19;9.52;;;3.33;;
54464;SDS011;40374;49.480;20.016;2023-03-16T09:05:47;14.82;;;3.70;;
54464;SDS011;40374;49.480;20.016;2023-03-16T09:08:15;12.05;;;3.15;;
54464;SDS011;40374;49.480;20.016;2023-03-16T09:10:44;16.65;;;4.25;;
54464;SDS011;40374;49.480;20.016;2023-03-16T09:13:18;10.77;;;2.67;;
54464;SDS011;40374;49.480;20.016;2023-03-16T09:15:45;7.95;;;2.55;;
54464;SDS011;40374;49.480;20.016;2023-03-16T09:18:16;7.68;;;3.20;;
54464;SDS011;40374;49.480;20.016;2023-03-16T09:20:45;12.95;;;3.38;;
54464;SDS011;40374;49.480;20.016;2023-03-16T09:23:15;16.88;;;3.53;;
54464;SDS011;40374;49.480;20.016;2023-03-16T09:25:44;15.77;;;3.30;;
54464;SDS011;40374;49.480;20.016;2023-03-16T09:28:13;16.20;;;3.13;;
54464;SDS011;40374;49.480;20.016;2023-03-16T09:36:54;6.63;;;2.58;;
54464;SDS011;40374;49.480;20.016;2023-03-16T09:39:23;13.63;;;3.00;;
54464;SDS011;40374;49.480;20.016;2023-03-16T09:41:58;14.77;;;3.92;;
54464;SDS011;40374;49.480;20.016;2023-03-16T09:47:32;9.35;;;3.25;;
54464;SDS011;40374;49.480;20.016;2023-03-16T09:50:07;11.00;;;2.38;;
54464;SDS011;40374;49.480;20.016;2023-03-16T09:52:54;7.03;;;2.88;;
54464;SDS011;40374;49.480;20.016;2023-03-16T09:55:29;13.50;;;3.50;;
54464;SDS011;40374;49.480;20.016;2023-03-16T09:58:00;10.15;;;3.13;;
54464;SDS011;40374;49.480;20.016;2023-03-16T10:05:42;9.07;;;3.20;;
54464;SDS011;40374;49.480;20.016;2023-03-16T10:08:32;12.25;;;3.20;;
54464;SDS011;40374;49.480;20.016;2023-03-16T10:14:02;11.85;;;3.65;;
54464;SDS011;40374;49.480;20.016;2023-03-16T10:16:42;6.45;;;2.42;;
54464;SDS011;40374;49.480;20.016;2023-03-16T10:22:01;10.77;;;2.95;;
54464;SDS011;40374;49.480;20.016;2023-03-16T10:27:36;9.82;;;2.55;;
54464;SDS011;40374;49.480;20.016;2023-03-16T10:30:28;9.60;;;2.90;;
54464;SDS011;40374;49.480;20.016;2023-03-16T10:32:59;13.60;;;3.08;;
54464;SDS011;40374;49.480;20.016;2023-03-16T10:36:29;10.00;;;3.13;;
54464;SDS011;40374;49.480;20.016;2023-03-16T10:38:51;13.43;;;2.70;;
54464;SDS011;40374;49.480;20.016;2023-03-16T10:41:23;10.60;;;2.72;;
54464;SDS011;40374;49.480;20.016;2023-03-16T10:44:12;7.53;;;2.35;;
54464;SDS011;40374;49.480;20.016;2023-03-16T10:46:48;6.13;;;2.40;;
54464;SDS011;40374;49.480;20.016;2023-03-16T10:49:26;9.20;;;3.50;;
54464;SDS011;40374;49.480;20.016;2023-03-16T10:51:56;11.73;;;2.90;;
54464;SDS011;40374;49.480;20.016;2023-03-16T10:54:32;5.60;;;2.55;;
54464;SDS011;40374;49.480;20.016;2023-03-16T10:57:13;5.97;;;2.70;;
54464;SDS011;40374;49.480;20.016;2023-03-16T11:00:34;5.90;;;2.20;;
54464;SDS011;40374;49.480;20.016;2023-03-16T11:02:48;5.93;;;2.40;;
54464;SDS011;40374;49.480;20.016;2023-03-16T11:10:24;9.50;;;3.30;;
54464;SDS011;40374;49.480;20.016;2023-03-16T11:13:16;9.13;;;2.88;;
54464;SDS011;40374;49.480;20.016;2023-03-16T11:15:48;14.13;;;3.42;;
54464;SDS011;40374;49.480;20.016;2023-03-16T11:18:23;6.63;;;2.63;;
54464;SDS011;40374;49.480;20.016;2023-03-16T11:21:00;7.32;;;2.90;;
54464;SDS011;40374;49.480;20.016;2023-03-16T11:23:53;7.70;;;2.72;;
54464;SDS011;40374;49.480;20.016;2023-03-16T11:26:26;6.93;;;2.72;;
54464;SDS011;40374;49.480;20.016;2023-03-16T11:29:08;6.32;;;3.22;;
54464;SDS011;40374;49.480;20.016;2023-03-16T11:31:50;7.05;;;2.83;;
54464;SDS011;40374;49.480;20.016;2023-03-16T11:34:27;9.98;;;3.60;;
54464;SDS011;40374;49.480;20.016;2023-03-16T11:37:09;12.10;;;3.20;;
54464;SDS011;40374;49.480;20.016;2023-03-16T11:42:29;11.18;;;2.80;;
54464;SDS011;40374;49.480;20.016;2023-03-16T12:10:16;9.07;;;3.55;;
54464;SDS011;40374;49.480;20.016;2023-03-16T12:15:57;5.30;;;2.92;;
54464;SDS011;40374;49.480;20.016;2023-03-16T12:18:35;6.75;;;2.88;;
54464;SDS011;40374;49.480;20.016;2023-03-16T12:21:12;5.68;;;2.70;;
54464;SDS011;40374;49.480;20.016;2023-03-16T12:23:50;5.85;;;3.00;;
54464;SDS011;40374;49.480;20.016;2023-03-16T12:26:24;8.73;;;3.60;;
54464;SDS011;40374;49.480;20.016;2023-03-16T12:28:57;14.18;;;4.55;;
54464;SDS011;40374;49.480;20.016;2023-03-16T12:31:45;12.23;;;4.43;;
54464;SDS011;40374;49.480;20.016;2023-03-16T12:34:31;9.63;;;4.10;;
54464;SDS011;40374;49.480;20.016;2023-03-16T12:37:14;7.88;;;3.92;;
54464;SDS011;40374;49.480;20.016;2023-03-16T12:39:54;9.40;;;4.38;;
54464;SDS011;40374;49.480;20.016;2023-03-16T12:53:40;7.85;;;3.97;;
54464;SDS011;40374;49.480;20.016;2023-03-16T12:56:10;11.75;;;3.92;;
54464;SDS011;40374;49.480;20.016;2023-03-16T12:58:41;8.57;;;3.50;;
54464;SDS011;40374;49.480;20.016;2023-03-16T13:01:18;6.70;;;3.03;;
54464;SDS011;40374;49.480;20.016;2023-03-16T13:03:57;7.10;;;3.30;;
54464;SDS011;40374;49.480;20.016;2023-03-16T13:06:32;11.55;;;4.00;;
54464;SDS011;40374;49.480;20.016;2023-03-16T13:09:03;9.18;;;3.90;;
54464;SDS011;40374;49.480;20.016;2023-03-16T13:11:44;8.90;;;3.35;;
54464;SDS011;40374;49.480;20.016;2023-03-16T13:14:29;10.68;;;3.30;;
54464;SDS011;40374;49.480;20.016;2023-03-16T13:19:25;7.75;;;3.00;;
54464;SDS011;40374;49.480;20.016;2023-03-16T13:22:00;8.07;;;3.60;;
54464;SDS011;40374;49.480;20.016;2023-03-16T13:24:35;7.85;;;3.35;;
54464;SDS011;40374;49.480;20.016;2023-03-16T13:27:21;8.75;;;3.75;;
54464;SDS011;40374;49.480;20.016;2023-03-16T13:29:59;9.60;;;3.17;;
54464;SDS011;40374;49.480;20.016;2023-03-16T13:32:30;6.75;;;3.55;;
54464;SDS011;40374;49.480;20.016;2023-03-16T13:35:01;8.68;;;4.00;;
54464;SDS011;40374;49.480;20.016;2023-03-16T13:37:35;9.07;;;4.18;;
54464;SDS011;40374;49.480;20.016;2023-03-16T13:40:02;8.90;;;3.53;;
54464;SDS011;40374;49.480;20.016;2023-03-16T13:42:33;9.25;;;3.75;;
54464;SDS011;40374;49.480;20.016;2023-03-16T13:45:10;8.60;;;3.45;;
54464;SDS011;40374;49.480;20.016;2023-03-16T13:47:42;8.05;;;3.72;;
54464;SDS011;40374;49.480;20.016;2023-03-16T13:50:12;12.18;;;4.07;;
54464;SDS011;40374;49.480;20.016;2023-03-16T13:52:42;13.40;;;3.85;;
54464;SDS011;40374;49.480;20.016;2023-03-16T13:55:16;7.32;;;2.78;;
54464;SDS011;40374;49.480;20.016;2023-03-16T13:57:51;10.60;;;3.53;;
54464;SDS011;40374;49.480;20.016;2023-03-16T14:00:20;8.30;;;4.03;;
54464;SDS011;40374;49.480;20.016;2023-03-16T14:02:55;17.52;;;4.32;;
54464;SDS011;40374;49.480;20.016;2023-03-16T14:05:25;12.57;;;4.38;;
54464;SDS011;40374;49.480;20.016;2023-03-16T14:07:57;9.65;;;4.03;;
54464;SDS011;40374;49.480;20.016;2023-03-16T14:10:35;11.00;;;4.03;;
54464;SDS011;40374;49.480;20.016;2023-03-16T14:13:08;8.60;;;3.88;;
54464;SDS011;40374;49.480;20.016;2023-03-16T14:15:48;9.15;;;3.55;;
54464;SDS011;40374;49.480;20.016;2023-03-16T14:18:17;11.80;;;4.32;;
54464;SDS011;40374;49.480;20.016;2023-03-16T14:20:52;8.75;;;3.83;;
54464;SDS011;40374;49.480;20.016;2023-03-16T14:23:26;10.10;;;4.25;;
54464;SDS011;40374;49.480;20.016;2023-03-16T14:25:59;8.38;;;3.83;;
54464;SDS011;40374;49.480;20.016;2023-03-16T14:28:32;11.35;;;3.83;;
54464;SDS011;40374;49.480;20.016;2023-03-16T14:31:04;7.53;;;3.55;;
54464;SDS011;40374;49.480;20.016;2023-03-16T14:33:40;9.77;;;4.03;;
54464;SDS011;40374;49.480;20.016;2023-03-16T14:36:13;13.07;;;5.00;;
54464;SDS011;40374;49.480;20.016;2023-03-16T14:38:44;14.88;;;5.18;;
54464;SDS011;40374;49.480;20.016;2023-03-16T14:41:23;10.18;;;4.20;;
54464;SDS011;40374;49.480;20.016;2023-03-16T14:43:56;8.82;;;4.55;;
54464;SDS011;40374;49.480;20.016;2023-03-16T14:46:29;9.18;;;3.50;;
54464;SDS011;40374;49.480;20.016;2023-03-16T14:49:19;11.13;;;5.30;;
54464;SDS011;40374;49.480;20.016;2023-03-16T14:51:52;19.08;;;5.70;;
54464;SDS011;40374;49.480;20.016;2023-03-16T14:54:24;12.30;;;6.28;;
54464;SDS011;40374;49.480;20.016;2023-03-16T14:56:57;15.98;;;6.53;;
54464;SDS011;40374;49.480;20.016;2023-03-16T14:59:27;13.75;;;6.00;;
54464;SDS011;40374;49.480;20.016;2023-03-16T15:01:56;15.68;;;4.90;;
54464;SDS011;40374;49.480;20.016;2023-03-16T15:04:27;19.10;;;7.60;;
54464;SDS011;40374;49.480;20.016;2023-03-16T15:07:00;20.17;;;8.65;;
54464;SDS011;40374;49.480;20.016;2023-03-16T15:09:40;18.42;;;6.50;;
54464;SDS011;40374;49.480;20.016;2023-03-16T15:12:13;19.15;;;5.72;;
54464;SDS011;40374;49.480;20.016;2023-03-16T15:14:46;22.52;;;7.57;;
54464;SDS011;40374;49.480;20.016;2023-03-16T15:17:32;24.67;;;9.07;;
54464;SDS011;40374;49.480;20.016;2023-03-16T15:20:00;24.02;;;7.88;;
54464;SDS011;40374;49.480;20.016;2023-03-16T15:22:31;19.17;;;7.32;;
54464;SDS011;40374;49.480;20.016;2023-03-16T15:25:46;16.87;;;5.83;;
54464;SDS011;40374;49.480;20.016;2023-03-16T15:27:56;21.40;;;7.63;;
54464;SDS011;40374;49.480;20.016;2023-03-16T15:30:26;16.85;;;6.25;;
54464;SDS011;40374;49.480;20.016;2023-03-16T15:32:54;22.35;;;8.88;;
54464;SDS011;40374;49.480;20.016;2023-03-16T15:35:22;20.52;;;6.45;;
54464;SDS011;40374;49.480;20.016;2023-03-16T15:37:50;17.35;;;7.00;;
54464;SDS011;40374;49.480;20.016;2023-03-16T15:40:26;13.52;;;5.47;;
54464;SDS011;40374;49.480;20.016;2023-03-16T15:42:55;17.05;;;5.78;;
54464;SDS011;40374;49.480;20.016;2023-03-16T15:45:23;20.92;;;6.15;;
54464;SDS011;40374;49.480;20.016;2023-03-16T15:47:53;21.48;;;6.10;;
54464;SDS011;40374;49.480;20.016;2023-03-16T15:50:21;20.67;;;5.82;;
54464;SDS011;40374;49.480;20.016;2023-03-16T15:52:51;23.30;;;5.70;;
54464;SDS011;40374;49.480;20.016;2023-03-16T15:55:40;21.70;;;6.82;;
54464;SDS011;40374;49.480;20.016;2023-03-16T15:58:17;28.92;;;10.18;;
54464;SDS011;40374;49.480;20.016;2023-03-16T16:00:47;17.75;;;7.45;;
54464;SDS011;40374;49.480;20.016;2023-03-16T16:03:15;23.20;;;6.43;;
54464;SDS011;40374;49.480;20.016;2023-03-16T16:05:43;15.50;;;5.80;;
54464;SDS011;40374;49.480;20.016;2023-03-16T16:08:10;13.30;;;4.90;;
54464;SDS011;40374;49.480;20.016;2023-03-16T16:10:38;19.52;;;6.38;;
54464;SDS011;40374;49.480;20.016;2023-03-16T16:13:12;18.83;;;6.85;;
54464;SDS011;40374;49.480;20.016;2023-03-16T16:15:43;19.45;;;6.50;;
54464;SDS011;40374;49.480;20.016;2023-03-16T16:20:58;22.08;;;8.80;;
54464;SDS011;40374;49.480;20.016;2023-03-16T16:23:27;28.23;;;12.18;;